createdAt,value
2023-05-11T00:00:56.566Z,15.04
2023-05-11T00:02:00.001Z,15.04
2023-05-11T00:03:04.565Z,15.04
2023-05-11T00:04:08.823Z,15.05
2023-05-11T00:05:13.154Z,15.05
2023-05-11T00:06:17.520Z,15.03
2023-05-11T00:07:21.870Z,15.02
2023-05-11T00:08:26.294Z,15.01
2023-05-11T00:09:30.561Z,15.01
2023-05-11T00:10:35.038Z,15.01
2023-05-11T00:11:39.385Z,15.01
2023-05-11T00:12:43.644Z,15.00
2023-05-11T00:13:48.076Z,15.00
2023-05-11T00:14:52.385Z,14.99
2023-05-11T00:15:56.944Z,14.98
2023-05-11T00:17:01.158Z,14.96
2023-05-11T00:18:05.625Z,14.94
2023-05-11T00:19:10.043Z,14.92
2023-05-11T00:20:14.275Z,14.87
2023-05-11T00:21:18.661Z,14.81
2023-05-11T00:22:22.938Z,14.73
2023-05-11T00:23:27.364Z,14.66
2023-05-11T00:24:31.612Z,14.59
2023-05-11T00:25:36.100Z,14.52
2023-05-11T00:26:40.500Z,14.45
2023-05-11T00:27:44.712Z,14.39
2023-05-11T00:28:49.150Z,14.35
2023-05-11T00:29:53.420Z,14.33
2023-05-11T00:30:57.882Z,14.34
2023-05-11T00:32:02.046Z,14.35
2023-05-11T00:33:06.541Z,14.37
2023-05-11T00:34:10.786Z,14.40
2023-05-11T00:35:15.167Z,14.41
2023-05-11T00:36:19.444Z,14.41
2023-05-11T00:37:25.860Z,14.39
2023-05-11T00:38:28.133Z,14.38
2023-05-11T00:39:32.548Z,14.36
2023-05-11T00:40:39.834Z,14.34
2023-05-11T00:41:43.360Z,14.30
2023-05-11T00:42:47.655Z,14.28
2023-05-11T00:43:52.060Z,14.27
2023-05-11T00:44:56.422Z,14.25
2023-05-11T00:46:00.725Z,14.24
2023-05-11T00:47:05.193Z,14.24
2023-05-11T00:48:09.447Z,14.24
2023-05-11T00:49:28.013Z,14.25
2023-05-11T00:50:31.306Z,14.26
2023-05-11T00:51:35.660Z,14.28
2023-05-11T00:52:39.974Z,14.30
2023-05-11T00:53:44.254Z,14.32
2023-05-11T00:54:48.593Z,14.34
2023-05-11T00:55:52.873Z,14.35
2023-05-11T00:56:57.189Z,14.36
2023-05-11T00:58:01.675Z,14.37
2023-05-11T00:59:05.993Z,14.38
2023-05-11T01:00:10.417Z,14.38
2023-05-11T01:01:14.671Z,14.36
2023-05-11T01:02:19.152Z,14.34
2023-05-11T01:03:23.389Z,14.32
2023-05-11T01:04:27.594Z,14.30
2023-05-11T01:05:32.029Z,14.29
2023-05-11T01:06:36.299Z,14.28
2023-05-11T01:07:40.720Z,14.28
2023-05-11T01:08:45.087Z,14.28
2023-05-11T01:09:49.327Z,14.28
2023-05-11T01:10:53.770Z,14.27
2023-05-11T01:11:58.168Z,14.23
2023-05-11T01:13:02.572Z,14.15
2023-05-11T01:14:06.898Z,14.03
2023-05-11T01:15:11.222Z,13.91
2023-05-11T01:16:15.647Z,13.78
2023-05-11T01:17:19.832Z,13.68
2023-05-11T01:18:24.266Z,13.62
2023-05-11T01:19:28.607Z,13.60
2023-05-11T01:20:32.972Z,13.60
2023-05-11T01:21:37.253Z,13.60
2023-05-11T01:22:41.636Z,13.59
2023-05-11T01:23:45.902Z,13.58
2023-05-11T01:24:50.390Z,13.56
2023-05-11T01:25:54.617Z,13.54
2023-05-11T01:26:59.067Z,13.51
2023-05-11T01:28:03.335Z,13.49
2023-05-11T01:29:07.695Z,13.47
2023-05-11T01:30:12.060Z,13.46
2023-05-11T01:31:16.450Z,13.46
2023-05-11T01:32:20.721Z,13.46
2023-05-11T01:33:25.093Z,13.47
2023-05-11T01:34:29.407Z,13.50
2023-05-11T01:35:33.717Z,13.52
2023-05-11T01:36:37.957Z,13.55
2023-05-11T01:37:42.323Z,13.56
2023-05-11T01:38:46.670Z,13.58
2023-05-11T01:39:50.958Z,13.59
2023-05-11T01:40:55.357Z,13.60
2023-05-11T01:41:59.622Z,13.61
2023-05-11T01:43:03.900Z,13.63
2023-05-11T01:44:08.287Z,13.64
2023-05-11T01:45:12.559Z,13.66
2023-05-11T01:46:17.022Z,13.67
2023-05-11T01:47:21.342Z,13.68
2023-05-11T01:48:25.580Z,13.67
2023-05-11T01:49:29.961Z,13.65
2023-05-11T01:50:34.319Z,13.64
2023-05-11T01:51:38.752Z,13.62
2023-05-11T01:52:42.986Z,13.60
2023-05-11T01:53:47.352Z,13.61
2023-05-11T01:54:51.655Z,13.61
2023-05-11T01:55:56.062Z,13.62
2023-05-11T01:57:06.354Z,13.64
2023-05-11T01:58:09.252Z,13.63
2023-05-11T01:59:13.517Z,13.61
2023-05-11T02:00:18.104Z,13.59
2023-05-11T02:01:22.305Z,13.57
2023-05-11T02:02:26.635Z,13.56
2023-05-11T02:03:44.968Z,13.56
2023-05-11T02:04:48.304Z,13.56
2023-05-11T02:05:52.547Z,13.56
2023-05-11T02:06:56.816Z,13.56
2023-05-11T02:08:01.107Z,13.57
2023-05-11T02:09:05.566Z,13.57
2023-05-11T02:10:09.907Z,13.58
2023-05-11T02:11:14.239Z,13.59
2023-05-11T02:12:18.702Z,13.59
2023-05-11T02:13:22.944Z,13.59
2023-05-11T02:14:27.311Z,13.59
2023-05-11T02:15:31.658Z,13.59
2023-05-11T02:16:35.970Z,13.59
2023-05-11T02:17:40.331Z,13.58
2023-05-11T02:18:44.620Z,13.58
2023-05-11T02:19:48.973Z,13.56
2023-05-11T02:20:53.279Z,13.52
2023-05-11T02:21:57.686Z,13.47
2023-05-11T02:23:02.006Z,13.42
2023-05-11T02:24:06.309Z,13.36
2023-05-11T02:25:10.654Z,13.31
2023-05-11T02:26:29.025Z,13.26
2023-05-11T02:27:32.246Z,13.21
2023-05-11T02:28:36.508Z,13.15
2023-05-11T02:29:40.692Z,13.10
2023-05-11T02:30:45.014Z,13.05
2023-05-11T02:31:49.462Z,13.01
2023-05-11T02:32:53.817Z,12.96
2023-05-11T02:33:58.002Z,12.91
2023-05-11T02:35:02.463Z,12.86
2023-05-11T02:36:06.832Z,12.82
2023-05-11T02:37:11.188Z,12.78
2023-05-11T02:38:15.508Z,12.75
2023-05-11T02:39:19.751Z,12.73
2023-05-11T02:40:24.122Z,12.71
2023-05-11T02:41:28.398Z,12.67
2023-05-11T02:42:32.777Z,12.61
2023-05-11T02:43:37.018Z,12.54
2023-05-11T02:44:41.321Z,12.47
2023-05-11T02:45:45.541Z,12.42
2023-05-11T02:46:49.856Z,12.38
2023-05-11T02:47:54.228Z,12.36
2023-05-11T02:48:58.607Z,12.33
2023-05-11T02:50:02.805Z,12.30
2023-05-11T02:51:07.196Z,12.27
2023-05-11T02:52:11.446Z,12.26
2023-05-11T02:53:15.762Z,12.27
2023-05-11T02:54:20.195Z,12.29
2023-05-11T02:55:24.422Z,12.33
2023-05-11T02:56:28.755Z,12.36
2023-05-11T02:57:33.039Z,12.41
2023-05-11T02:58:37.388Z,12.46
2023-05-11T02:59:41.609Z,12.51
2023-05-11T03:00:45.976Z,12.56
2023-05-11T03:01:50.455Z,12.59
2023-05-11T03:02:54.662Z,12.62
2023-05-11T03:03:59.084Z,12.63
2023-05-11T03:05:03.279Z,12.64
2023-05-11T03:06:07.600Z,12.65
2023-05-11T03:07:11.961Z,12.67
2023-05-11T03:08:16.195Z,12.68
2023-05-11T03:09:20.467Z,12.69
2023-05-11T03:10:24.844Z,12.70
2023-05-11T03:11:29.100Z,12.71
2023-05-11T03:12:33.415Z,12.71
2023-05-11T03:13:37.661Z,12.72
2023-05-11T03:14:42.100Z,12.74
2023-05-11T03:15:46.319Z,12.75
2023-05-11T03:16:53.826Z,12.76
2023-05-11T03:17:57.199Z,12.77
2023-05-11T03:19:01.628Z,12.77
2023-05-11T03:20:05.851Z,12.77
2023-05-11T03:21:10.108Z,12.78
2023-05-11T03:22:14.408Z,12.79
2023-05-11T03:23:18.732Z,12.79
2023-05-11T03:24:23.158Z,12.79
2023-05-11T03:25:27.537Z,12.78
2023-05-11T03:26:31.853Z,12.77
2023-05-11T03:27:36.234Z,12.76
2023-05-11T03:28:40.508Z,12.75
2023-05-11T03:29:45.025Z,12.74
2023-05-11T03:30:49.318Z,12.72
2023-05-11T03:31:53.630Z,12.70
2023-05-11T03:32:58.052Z,12.69
2023-05-11T03:34:02.388Z,12.67
2023-05-11T03:36:33.682Z,12.62
2023-05-11T03:37:37.944Z,12.59
2023-05-11T03:38:42.295Z,12.57
2023-05-11T03:39:46.678Z,12.54
2023-05-11T03:40:50.926Z,12.50
2023-05-11T03:41:55.342Z,12.46
2023-05-11T03:42:59.666Z,12.44
2023-05-11T03:44:03.918Z,12.42
2023-05-11T03:45:08.194Z,12.41
2023-05-11T03:46:12.632Z,12.39
2023-05-11T03:47:16.771Z,12.39
2023-05-11T03:48:21.059Z,12.38
2023-05-11T03:49:25.299Z,12.38
2023-05-11T03:50:29.668Z,12.38
2023-05-11T03:51:33.936Z,12.38
2023-05-11T03:52:38.235Z,12.40
2023-05-11T03:53:42.536Z,12.42
2023-05-11T03:54:46.780Z,12.45
2023-05-11T03:55:51.107Z,12.47
2023-05-11T03:56:55.425Z,12.49
2023-05-11T03:58:00.520Z,12.51
2023-05-11T03:59:04.149Z,12.54
2023-05-11T04:00:08.494Z,12.55
2023-05-11T04:01:12.938Z,12.57
2023-05-11T04:02:17.270Z,12.58
2023-05-11T04:03:21.736Z,12.60
2023-05-11T04:04:25.884Z,12.61
2023-05-11T04:05:30.192Z,12.62
2023-05-11T04:06:34.455Z,12.63
2023-05-11T04:07:38.750Z,12.65
2023-05-11T04:08:43.155Z,12.66
2023-05-11T04:09:47.480Z,12.67
2023-05-11T04:10:51.726Z,12.68
2023-05-11T04:11:56.046Z,12.69
2023-05-11T04:13:00.424Z,12.70
2023-05-11T04:14:04.635Z,12.71
2023-05-11T04:15:08.937Z,12.73
2023-05-11T04:16:13.273Z,12.75
2023-05-11T04:17:17.532Z,12.76
2023-05-11T04:18:21.883Z,12.79
2023-05-11T04:19:26.130Z,12.82
2023-05-11T04:20:30.441Z,12.84
2023-05-11T04:21:34.756Z,12.87
2023-05-11T04:22:39.068Z,12.90
2023-05-11T04:23:46.517Z,12.93
2023-05-11T04:24:49.891Z,12.96
2023-05-11T04:25:54.143Z,12.99
2023-05-11T04:26:58.471Z,13.02
2023-05-11T04:28:02.745Z,13.05
2023-05-11T04:29:07.038Z,13.08
2023-05-11T04:30:11.404Z,13.11
2023-05-11T04:31:15.823Z,13.13
2023-05-11T04:32:20.076Z,13.16
2023-05-11T04:33:24.345Z,13.19
2023-05-11T04:34:28.689Z,13.22
2023-05-11T04:35:33.069Z,13.24
2023-05-11T04:36:37.339Z,13.26
2023-05-11T04:37:41.692Z,13.29
2023-05-11T04:38:45.954Z,13.31
2023-05-11T04:39:50.239Z,13.34
2023-05-11T04:40:54.505Z,13.37
2023-05-11T04:41:58.901Z,13.38
2023-05-11T04:43:03.278Z,13.42
2023-05-11T04:44:07.634Z,13.44
2023-05-11T04:45:11.964Z,13.47
2023-05-11T04:46:16.264Z,13.50
2023-05-11T04:47:20.573Z,13.53
2023-05-11T04:48:24.983Z,13.56
2023-05-11T04:49:29.366Z,13.59
2023-05-11T04:50:33.676Z,13.62
2023-05-11T04:51:37.958Z,13.64
2023-05-11T04:52:42.368Z,13.66
2023-05-11T04:53:46.741Z,13.68
2023-05-11T04:54:51.054Z,13.71
2023-05-11T04:55:55.337Z,13.73
2023-05-11T04:56:59.656Z,13.75
2023-05-11T04:58:04.013Z,13.78
2023-05-11T04:59:08.336Z,13.82
2023-05-11T05:00:12.600Z,13.85
2023-05-11T05:01:17.002Z,13.88
2023-05-11T05:02:21.124Z,13.92
2023-05-11T05:03:25.659Z,13.95
2023-05-11T05:04:29.888Z,13.99
2023-05-11T05:05:34.179Z,14.05
2023-05-11T05:06:38.608Z,14.09
2023-05-11T05:07:43.067Z,14.13
2023-05-11T05:08:47.437Z,14.17
2023-05-11T05:09:51.700Z,14.20
2023-05-11T05:10:56.032Z,14.25
2023-05-11T05:12:00.394Z,14.28
2023-05-11T05:13:04.768Z,14.31
2023-05-11T05:14:09.085Z,14.35
2023-05-11T05:15:13.484Z,14.40
2023-05-11T05:16:17.782Z,14.44
2023-05-11T05:17:22.111Z,14.48
2023-05-11T05:18:26.549Z,14.52
2023-05-11T05:19:44.901Z,14.56
2023-05-11T05:20:48.081Z,14.61
2023-05-11T05:21:52.354Z,14.67
2023-05-11T05:22:56.639Z,14.72
2023-05-11T05:24:00.990Z,14.76
2023-05-11T05:25:05.396Z,14.80
2023-05-11T05:26:09.750Z,14.85
2023-05-11T05:27:14.035Z,14.89
2023-05-11T05:28:18.534Z,14.93
2023-05-11T05:29:22.859Z,14.97
2023-05-11T05:30:27.237Z,15.02
2023-05-11T05:32:36.053Z,15.12
2023-05-11T05:33:40.284Z,15.17
2023-05-11T05:34:44.641Z,15.22
2023-05-11T05:35:48.919Z,15.27
2023-05-11T05:36:53.381Z,15.32
2023-05-11T05:37:57.709Z,15.36
2023-05-11T05:39:02.008Z,15.43
2023-05-11T05:40:06.421Z,15.48
2023-05-11T05:41:10.864Z,15.53
2023-05-11T05:42:15.199Z,15.59
2023-05-11T05:43:33.734Z,15.65
2023-05-11T05:44:36.944Z,15.74
2023-05-11T05:45:41.215Z,15.81
2023-05-11T05:46:45.752Z,15.88
2023-05-11T05:47:49.942Z,15.95
2023-05-11T05:48:54.342Z,16.04
2023-05-11T05:51:26.309Z,16.22
2023-05-11T05:52:30.562Z,16.32
2023-05-11T05:53:34.968Z,16.41
2023-05-11T05:54:39.350Z,16.50
2023-05-11T05:55:43.623Z,16.59
2023-05-11T05:56:48.100Z,16.66
2023-05-11T05:57:52.417Z,16.72
2023-05-11T05:58:56.864Z,16.74
2023-05-11T06:00:01.168Z,16.75
2023-05-11T06:01:05.558Z,16.76
2023-05-11T06:02:10.132Z,16.78
2023-05-11T06:03:14.385Z,16.83
2023-05-11T06:04:18.937Z,16.89
2023-05-11T06:05:23.031Z,16.94
2023-05-11T06:06:27.563Z,16.99
2023-05-11T06:07:31.920Z,17.05
2023-05-11T06:08:36.302Z,17.09
2023-05-11T06:09:40.609Z,17.14
2023-05-11T06:10:44.984Z,17.18
2023-05-11T06:11:49.301Z,17.23
2023-05-11T06:12:53.749Z,17.28
2023-05-11T06:14:04.166Z,17.31
2023-05-11T06:15:07.240Z,17.35
2023-05-11T06:16:11.582Z,17.39
2023-05-11T06:17:15.882Z,17.41
2023-05-11T06:18:20.389Z,17.44
2023-05-11T06:19:24.701Z,17.49
2023-05-11T06:20:29.232Z,17.54
2023-05-11T06:21:33.427Z,17.59
2023-05-11T06:22:37.896Z,17.64
2023-05-11T06:23:42.277Z,17.69
2023-05-11T06:24:46.602Z,17.74
2023-05-11T06:25:51.019Z,17.80
2023-05-11T06:26:55.538Z,17.87
2023-05-11T06:27:59.906Z,17.94
2023-05-11T06:29:04.324Z,18.00
2023-05-11T06:30:08.654Z,18.06
2023-05-11T06:31:13.155Z,18.12
2023-05-11T06:32:17.476Z,18.17
2023-05-11T06:33:21.893Z,18.22
2023-05-11T06:34:26.316Z,18.27
2023-05-11T06:35:30.677Z,18.26
2023-05-11T06:36:35.086Z,18.28
2023-05-11T06:37:39.510Z,18.32
2023-05-11T06:38:43.988Z,18.36
2023-05-11T06:39:48.338Z,18.40
2023-05-11T06:40:52.897Z,18.44
2023-05-11T06:42:00.409Z,18.49
2023-05-11T06:43:01.623Z,18.53
2023-05-11T06:44:06.060Z,18.56
2023-05-11T06:45:10.543Z,18.60
2023-05-11T06:46:14.924Z,18.63
2023-05-11T06:47:19.214Z,18.66
2023-05-11T06:48:23.632Z,18.68
2023-05-11T06:49:28.148Z,18.71
2023-05-11T06:50:32.558Z,18.75
2023-05-11T06:51:39.950Z,18.81
2023-05-11T06:52:43.507Z,18.85
2023-05-11T06:53:47.905Z,18.88
2023-05-11T06:54:52.289Z,18.92
2023-05-11T06:55:56.661Z,18.97
2023-05-11T06:57:01.113Z,19.02
2023-05-11T06:58:05.444Z,19.08
2023-05-11T06:59:09.870Z,19.15
2023-05-11T07:00:28.363Z,19.18
2023-05-11T07:01:31.895Z,19.21
2023-05-11T07:02:36.217Z,19.24
2023-05-11T07:03:40.480Z,19.27
2023-05-11T07:04:45.103Z,19.31
2023-05-11T07:05:49.343Z,19.36
2023-05-11T07:06:56.830Z,19.40
2023-05-11T07:08:00.329Z,19.47
2023-05-11T07:09:18.665Z,19.55
2023-05-11T07:10:28.194Z,19.68
2023-05-11T07:11:31.262Z,19.79
2023-05-11T07:12:35.644Z,19.87
2023-05-11T07:13:40.057Z,19.88
2023-05-11T07:14:44.512Z,19.81
2023-05-11T07:15:48.888Z,19.78
2023-05-11T07:16:53.297Z,19.69
2023-05-11T07:19:24.974Z,19.71
2023-05-11T07:20:29.291Z,19.74
2023-05-11T07:21:33.628Z,19.79
2023-05-11T07:22:38.057Z,19.80
2023-05-11T07:23:42.357Z,19.73
2023-05-11T07:24:46.859Z,19.67
2023-05-11T07:25:51.208Z,19.68
2023-05-11T07:26:55.671Z,19.68
2023-05-11T07:28:00.018Z,19.75
2023-05-11T07:29:04.501Z,19.79
2023-05-11T07:30:09.012Z,19.80
2023-05-11T07:31:13.365Z,19.81
2023-05-11T07:32:17.784Z,19.81
2023-05-11T07:33:22.261Z,19.79
2023-05-11T07:34:32.695Z,19.73
2023-05-11T07:35:35.788Z,19.72
2023-05-11T07:36:40.189Z,19.70
2023-05-11T07:37:44.610Z,19.70
2023-05-11T07:38:49.019Z,19.70
2023-05-11T07:39:53.541Z,19.72
2023-05-11T07:40:57.797Z,19.74
2023-05-11T07:42:02.298Z,19.74
2023-05-11T07:43:06.685Z,19.74
2023-05-11T07:44:11.001Z,19.74
2023-05-11T07:45:15.457Z,19.74
2023-05-11T07:46:19.936Z,19.73
2023-05-11T07:47:24.216Z,19.75
2023-05-11T07:48:28.542Z,19.78
2023-05-11T07:49:42.947Z,19.78
2023-05-11T07:50:37.492Z,19.80
2023-05-11T07:51:41.938Z,19.82
2023-05-11T07:52:46.389Z,19.85
2023-05-11T07:53:50.799Z,19.87
2023-05-11T07:54:55.221Z,19.88
2023-05-11T07:55:59.638Z,19.88
2023-05-11T07:58:31.508Z,19.91
2023-05-11T07:59:35.863Z,19.92
2023-05-11T08:00:40.301Z,19.94
2023-05-11T08:01:44.678Z,19.95
2023-05-11T08:02:52.226Z,19.98
2023-05-11T08:03:55.654Z,19.97
2023-05-11T08:04:59.971Z,19.96
2023-05-11T08:06:04.467Z,19.96
2023-05-11T08:07:08.910Z,19.99
2023-05-11T08:08:13.268Z,20.04
2023-05-11T08:09:17.698Z,20.10
2023-05-11T08:10:22.065Z,20.15
2023-05-11T08:11:26.526Z,20.19
2023-05-11T08:12:30.989Z,20.15
2023-05-11T08:13:35.517Z,20.09
2023-05-11T08:14:39.946Z,20.03
2023-05-11T08:15:44.447Z,19.99
2023-05-11T08:16:48.910Z,19.95
2023-05-11T08:17:53.239Z,19.93
2023-05-11T08:18:57.682Z,19.94
2023-05-11T08:20:01.985Z,19.97
2023-05-11T08:21:06.432Z,20.00
2023-05-11T08:22:10.883Z,20.02
2023-05-11T08:23:15.368Z,20.05
2023-05-11T08:24:19.757Z,20.08
2023-05-11T08:25:24.104Z,20.11
2023-05-11T08:26:28.528Z,20.17
2023-05-11T08:27:33.032Z,20.23
2023-05-11T08:28:37.434Z,20.23
2023-05-11T08:29:41.894Z,20.27
2023-05-11T08:30:49.274Z,20.31
2023-05-11T08:31:52.879Z,20.27
2023-05-11T08:32:58.925Z,20.23
2023-05-11T08:34:01.700Z,20.22
2023-05-11T08:35:06.141Z,20.22
2023-05-11T08:36:10.465Z,20.26
2023-05-11T08:37:14.889Z,20.27
2023-05-11T08:38:19.386Z,20.30
2023-05-11T08:39:38.970Z,20.33
2023-05-11T08:40:28.233Z,20.36
2023-05-11T08:41:32.650Z,20.35
2023-05-11T08:42:37.095Z,20.34
2023-05-11T08:43:41.571Z,20.27
2023-05-11T08:44:46.052Z,20.25
2023-05-11T08:45:50.527Z,20.27
2023-05-11T08:47:08.559Z,20.31
2023-05-11T08:47:59.428Z,20.36
2023-05-11T08:49:03.738Z,20.37
2023-05-11T08:50:08.121Z,20.37
2023-05-11T08:52:39.888Z,20.35
2023-05-11T08:53:44.251Z,20.40
2023-05-11T08:54:48.541Z,20.46
2023-05-11T08:55:52.947Z,20.54
2023-05-11T08:56:57.397Z,20.60
2023-05-11T08:58:01.751Z,20.64
2023-05-11T08:59:06.147Z,20.65
2023-05-11T09:00:10.583Z,20.66
2023-05-11T09:01:15.110Z,20.69
2023-05-11T09:02:19.577Z,20.71
2023-05-11T09:03:23.998Z,20.73
2023-05-11T09:04:28.358Z,20.75
2023-05-11T09:05:32.992Z,20.78
2023-05-11T09:06:37.377Z,20.81
2023-05-11T09:07:41.749Z,20.82
2023-05-11T09:08:46.234Z,20.80
2023-05-11T09:09:50.721Z,20.80
2023-05-11T09:10:55.044Z,20.83
2023-05-11T09:11:59.472Z,20.88
2023-05-11T09:13:03.981Z,20.93
2023-05-11T09:14:08.443Z,20.92
2023-05-11T09:15:12.891Z,20.94
2023-05-11T09:16:35.705Z,20.98
2023-05-11T09:17:21.856Z,20.97
2023-05-11T09:18:26.234Z,20.93
2023-05-11T09:19:30.597Z,20.94
2023-05-11T09:20:34.970Z,20.98
2023-05-11T09:21:39.451Z,21.04
2023-05-11T09:22:43.914Z,21.07
2023-05-11T09:23:48.317Z,21.06
2023-05-11T09:24:52.764Z,21.09
2023-05-11T09:25:57.306Z,21.13
2023-05-11T09:27:01.791Z,21.18
2023-05-11T09:28:06.175Z,21.22
2023-05-11T09:29:10.502Z,21.25
2023-05-11T09:31:19.473Z,21.29
2023-05-11T09:32:24.150Z,21.26
2023-05-11T09:33:28.398Z,21.26
2023-05-11T09:34:32.748Z,21.26
2023-05-11T09:35:37.290Z,21.26
2023-05-11T09:36:41.828Z,21.27
2023-05-11T09:37:46.252Z,21.27
2023-05-11T09:38:50.675Z,21.27
2023-05-11T09:40:25.081Z,21.31
2023-05-11T09:40:59.468Z,21.34
2023-05-11T09:42:03.872Z,21.34
2023-05-11T09:43:08.234Z,21.36
2023-05-11T09:44:26.846Z,21.38
2023-05-11T09:45:30.153Z,21.36
2023-05-11T09:46:34.485Z,21.36
2023-05-11T09:47:38.860Z,21.34
2023-05-11T09:48:43.358Z,21.31
2023-05-11T09:49:47.870Z,21.32
2023-05-11T09:50:52.232Z,21.35
2023-05-11T09:51:56.737Z,21.38
2023-05-11T09:53:01.150Z,21.39
2023-05-11T09:54:05.535Z,21.42
2023-05-11T09:55:10.039Z,21.46
2023-05-11T09:56:14.506Z,21.49
2023-05-11T09:57:18.813Z,21.50
2023-05-11T09:58:23.212Z,21.53
2023-05-11T09:59:27.737Z,21.53
2023-05-11T10:00:46.098Z,21.53
2023-05-11T10:01:49.459Z,21.55
2023-05-11T10:02:53.824Z,21.58
2023-05-11T10:04:13.386Z,21.59
2023-05-11T10:05:02.741Z,21.62
2023-05-11T10:06:07.087Z,21.64
2023-05-11T10:07:11.475Z,21.65
2023-05-11T10:08:15.988Z,21.63
2023-05-11T10:09:20.461Z,21.63
2023-05-11T10:10:24.945Z,21.66
2023-05-11T10:11:29.398Z,21.68
2023-05-11T10:12:47.944Z,21.69
2023-05-11T10:13:51.226Z,21.71
2023-05-11T10:14:55.772Z,21.71
2023-05-11T10:16:00.172Z,21.73
2023-05-11T10:17:18.593Z,21.66
2023-05-11T10:18:22.303Z,21.57
2023-05-11T10:19:26.496Z,21.53
2023-05-11T10:20:30.926Z,21.55
2023-05-11T10:21:49.390Z,21.58
2023-05-11T10:22:52.713Z,21.61
2023-05-11T10:23:57.070Z,21.62
2023-05-11T10:25:01.588Z,21.67
2023-05-11T10:26:06.062Z,21.72
2023-05-11T10:27:10.598Z,21.76
2023-05-11T10:28:14.912Z,21.80
2023-05-11T10:29:19.407Z,21.85
2023-05-11T10:30:23.769Z,21.88
2023-05-11T10:31:28.315Z,21.90
2023-05-11T10:32:32.731Z,21.93
2023-05-11T10:33:37.096Z,21.92
2023-05-11T10:34:41.609Z,21.95
2023-05-11T10:35:46.150Z,21.99
2023-05-11T10:36:50.585Z,22.03
2023-05-11T10:37:55.034Z,22.09
2023-05-11T10:38:59.577Z,22.12
2023-05-11T10:40:03.892Z,22.14
2023-05-11T10:41:08.436Z,22.19
2023-05-11T10:42:12.838Z,22.20
2023-05-11T10:43:20.411Z,22.21
2023-05-11T10:44:23.987Z,22.22
2023-05-11T10:45:28.458Z,22.26
2023-05-11T10:46:32.818Z,22.28
2023-05-11T10:47:37.316Z,22.28
2023-05-11T10:48:41.852Z,22.26
2023-05-11T10:49:46.217Z,22.18
2023-05-11T10:50:50.781Z,22.20
2023-05-11T10:51:55.280Z,22.31
2023-05-11T10:52:59.745Z,22.46
2023-05-11T10:54:04.085Z,22.67
2023-05-11T10:55:08.605Z,22.83
2023-05-11T10:56:13.097Z,22.91
2023-05-11T10:57:17.553Z,22.95
2023-05-11T10:58:22.002Z,22.97
2023-05-11T10:59:26.421Z,22.97
2023-05-11T11:00:33.853Z,22.99
2023-05-11T11:01:37.357Z,23.01
2023-05-11T11:02:41.918Z,23.09
2023-05-11T11:03:49.279Z,23.12
2023-05-11T11:04:52.965Z,23.19
2023-05-11T11:06:00.064Z,23.18
2023-05-11T11:07:01.892Z,23.18
2023-05-11T11:08:06.398Z,23.13
2023-05-11T11:09:10.883Z,23.06
2023-05-11T11:10:15.360Z,23.00
2023-05-11T11:11:22.823Z,22.90
2023-05-11T11:12:26.489Z,22.74
2023-05-11T11:13:30.833Z,22.64
2023-05-11T11:14:35.466Z,22.66
2023-05-11T11:15:39.924Z,22.69
2023-05-11T11:16:44.301Z,22.75
2023-05-11T11:17:48.704Z,22.80
2023-05-11T11:18:53.266Z,22.89
2023-05-11T11:19:57.697Z,22.98
2023-05-11T11:21:02.173Z,23.02
2023-05-11T11:22:06.642Z,22.99
2023-05-11T11:23:10.998Z,22.93
2023-05-11T11:24:15.421Z,22.83
2023-05-11T11:25:20.186Z,22.77
2023-05-11T11:26:24.468Z,22.71
2023-05-11T11:27:30.679Z,22.66
2023-05-11T11:28:33.297Z,22.56
2023-05-11T11:29:37.854Z,22.50
2023-05-11T11:30:42.308Z,22.44
2023-05-11T11:31:46.816Z,22.39
2023-05-11T11:32:51.128Z,22.34
2023-05-11T11:33:55.469Z,22.28
2023-05-11T11:34:59.990Z,22.27
2023-05-11T11:36:04.480Z,22.24
2023-05-11T11:37:09.004Z,22.25
2023-05-11T11:38:13.399Z,22.22
2023-05-11T11:39:17.767Z,22.18
2023-05-11T11:40:22.280Z,22.13
2023-05-11T11:41:26.782Z,22.11
2023-05-11T11:42:31.201Z,22.07
2023-05-11T11:43:37.814Z,22.04
2023-05-11T11:44:40.020Z,22.03
2023-05-11T11:45:44.465Z,22.02
2023-05-11T11:46:48.974Z,22.02
2023-05-11T11:47:53.401Z,21.95
2023-05-11T11:49:00.825Z,21.92
2023-05-11T11:50:04.358Z,21.84
2023-05-11T11:51:08.861Z,21.80
2023-05-11T11:52:27.229Z,21.75
2023-05-11T11:53:30.734Z,21.68
2023-05-11T11:54:35.100Z,21.62
2023-05-11T11:55:39.427Z,21.55
2023-05-11T11:56:43.982Z,21.53
2023-05-11T11:57:48.384Z,21.54
2023-05-11T11:58:52.795Z,21.62
2023-05-11T11:59:57.285Z,21.82
2023-05-11T12:01:15.629Z,22.00
2023-05-11T12:02:19.004Z,22.20
2023-05-11T12:03:29.566Z,22.33
2023-05-11T12:04:32.830Z,22.38
2023-05-11T12:05:37.058Z,22.41
2023-05-11T12:06:41.486Z,22.44
2023-05-11T12:07:45.880Z,22.60
2023-05-11T12:08:50.380Z,22.83
2023-05-11T12:09:54.988Z,23.04
2023-05-11T12:10:59.325Z,23.25
2023-05-11T12:12:03.797Z,23.31
2023-05-11T12:13:08.217Z,23.30
2023-05-11T12:14:12.779Z,23.23
2023-05-11T12:15:17.582Z,23.17
2023-05-11T12:16:21.662Z,23.11
2023-05-11T12:17:26.153Z,23.04
2023-05-11T12:18:30.528Z,22.98
2023-05-11T12:19:35.070Z,22.94
2023-05-11T12:20:39.492Z,22.84
2023-05-11T12:21:43.924Z,22.80
2023-05-11T12:22:48.412Z,22.76
2023-05-11T12:23:52.844Z,22.69
2023-05-11T12:24:59.653Z,22.65
2023-05-11T12:26:01.693Z,22.58
2023-05-11T12:27:06.221Z,22.51
2023-05-11T12:28:10.775Z,22.50
2023-05-11T12:29:15.124Z,22.51
2023-05-11T12:30:19.667Z,22.48
2023-05-11T12:31:24.139Z,22.44
2023-05-11T12:32:28.550Z,22.40
2023-05-11T12:33:32.955Z,22.39
2023-05-11T12:34:37.428Z,22.39
2023-05-11T12:35:41.964Z,22.39
2023-05-11T12:36:46.277Z,22.46
2023-05-11T12:37:50.792Z,22.62
2023-05-11T12:38:55.331Z,22.84
2023-05-11T12:39:59.772Z,22.98
2023-05-11T12:41:04.308Z,23.07
2023-05-11T12:42:08.731Z,23.15
2023-05-11T12:43:13.083Z,23.26
2023-05-11T12:44:17.516Z,23.37
2023-05-11T12:45:22.006Z,23.50
2023-05-11T12:46:26.457Z,23.68
2023-05-11T12:47:30.969Z,23.80
2023-05-11T12:48:35.232Z,23.85
2023-05-11T12:49:39.716Z,23.88
2023-05-11T12:50:44.237Z,23.87
2023-05-11T12:51:48.612Z,23.84
2023-05-11T12:52:53.104Z,23.78
2023-05-11T12:53:57.525Z,23.72
2023-05-11T12:55:07.989Z,23.65
2023-05-11T12:56:11.147Z,23.57
2023-05-11T12:57:15.567Z,23.49
2023-05-11T12:58:19.960Z,23.43
2023-05-11T12:59:24.373Z,23.35
2023-05-11T13:00:28.862Z,23.25
2023-05-11T13:01:33.311Z,23.14
2023-05-11T13:02:37.724Z,23.07
2023-05-11T13:03:48.482Z,23.02
2023-05-11T13:04:51.208Z,23.04
2023-05-11T13:05:55.656Z,23.05
2023-05-11T13:07:00.116Z,23.00
2023-05-11T13:08:04.588Z,23.00
2023-05-11T13:09:09.060Z,23.00
2023-05-11T13:10:13.407Z,23.00
2023-05-11T13:11:17.825Z,22.98
2023-05-11T13:12:22.414Z,23.00
2023-05-11T13:13:26.935Z,23.03
2023-05-11T13:14:31.344Z,23.10
2023-05-11T13:15:35.724Z,23.19
2023-05-11T13:16:40.296Z,23.27
2023-05-11T13:17:44.778Z,23.30
2023-05-11T13:18:52.134Z,23.33
2023-05-11T13:19:55.702Z,23.32
2023-05-11T13:21:00.228Z,23.33
2023-05-11T13:22:04.703Z,23.33
2023-05-11T13:23:09.110Z,23.34
2023-05-11T13:24:13.623Z,23.25
2023-05-11T13:25:18.261Z,23.27
2023-05-11T13:26:22.651Z,23.32
2023-05-11T13:27:27.012Z,23.31
2023-05-11T13:28:31.424Z,23.32
2023-05-11T13:29:36.600Z,23.35
2023-05-11T13:30:40.785Z,23.39
2023-05-11T13:31:45.356Z,23.41
2023-05-11T13:32:49.730Z,23.38
2023-05-11T13:33:54.072Z,23.37
2023-05-11T13:34:58.554Z,23.35
2023-05-11T13:36:03.069Z,23.33
2023-05-11T13:37:07.529Z,23.30
2023-05-11T13:38:11.854Z,23.24
2023-05-11T13:39:16.267Z,23.17
2023-05-11T13:40:20.745Z,23.13
2023-05-11T13:41:25.212Z,23.07
2023-05-11T13:42:29.614Z,23.05
2023-05-11T13:43:34.026Z,23.04
2023-05-11T13:44:38.528Z,23.05
2023-05-11T13:45:43.054Z,23.05
2023-05-11T13:46:47.468Z,23.02
2023-05-11T13:47:51.815Z,22.91
2023-05-11T13:48:56.152Z,22.85
2023-05-11T13:50:00.644Z,22.84
2023-05-11T13:51:05.143Z,22.83
2023-05-11T13:52:09.625Z,22.84
2023-05-11T13:53:14.072Z,22.79
2023-05-11T13:54:18.474Z,22.75
2023-05-11T13:55:22.980Z,22.72
2023-05-11T13:56:27.297Z,22.67
2023-05-11T13:57:31.831Z,22.57
2023-05-11T13:58:36.234Z,22.50
2023-05-11T13:59:40.740Z,22.45
2023-05-11T14:00:56.610Z,22.40
2023-05-11T14:02:03.789Z,22.37
2023-05-11T14:03:06.961Z,22.37